Главная страница
METAR-TAF:

METAR-TAF

Аэропорты :

Стур, Норвегия

широта: 59-48N, долгота: 005-21E, высота над уровнем моря: 49 м

Текущие метеонаблюдения

Эта сводка был подготовлена 1 час и 16 минут назад, в 17:20 UTC
Ветер 9 Узел от западный-юго-западный
Температура 10°C
Влажность 100%
Давление 1010 hPa
Видимость: 3000 м
Отдельные облака на высоте 600 фута
Рассеянная облачность на высоте 900 фута
дождь, Морось, дымка

METAR: ENSO 221720Z 24009KT 3000 RADZ BR SCT006 BKN009 10/10 Q1010

Время: 20:36 (18:36 UTC)

Прогноз

Эта сводка был подготовлена 4 часа и 36 минут назад, в 14:00 UTC
Прогноз действительный с 22-го 15 UTC до 22-го 18 UTC
Ветер 12 Узел от юго-западный
Видимость: 5000 м
небольшая облачность на высоте 600 фута
Рассеянная облачность на высоте 1200 фута
небольшой дождь
временами
С 22-го 15 UTC до 22-го 18 UTC
Видимость: 3000 м
Рассеянная облачность на высоте 600 фута
дождь, Морось, дымка

TAF: ENSO 221400Z 2215/2218 22012KT 5000 -RA FEW006 BKN012 TEMPO 2215/2218 3000 RADZ BR BKN006

Метеонаблюдения и прогнозы для более 4000 аэропортов (сводки METAR и TAF).

Имеющиеся станции представлены на карте желтыми и красными точками.

Чтобы увидеть название станции, наведите на нее мышь.

Затем щелкните, чтобы увидеть метеонаблюдения и метеопрогнозы.

Управление картой: чтобы увеличить масштаб, щелкните зеленые кнопки с черным крестиком; чтобы уменьшить масштаб, щелкните зеленую кнопку с тире; для просмотра соседних карт щелкайте зеленые стрелки.


METAR-TAF: